TimeCDT,TemperatureF,Dew PointF,Humidity,Sea Level PressureIn,VisibilityMPH,Wind Direction,Wind SpeedMPH,Gust SpeedMPH,PrecipitationIn,Events,Conditions,WindDirDegrees,DateUTC
12:53 AM,64.9,63.0,93,30.05,7.0,SSE,4.6,-,N/A,,Clear,150,2012-10-10 05:53:00
1:53 AM,64.9,64.0,97,30.07,8.0,Calm,Calm,-,N/A,,Clear,0,2012-10-10 06:53:00
2:53 AM,68.0,64.0,87,30.08,8.0,Calm,Calm,-,N/A,,Partly Cloudy,0,2012-10-10 07:53:00
3:23 AM,68.0,64.4,88,30.10,9.0,North,3.5,-,N/A,,Mostly Cloudy,360,2012-10-10 08:23:00
3:30 AM,68.0,64.4,88,30.10,9.0,North,4.6,-,N/A,,Partly Cloudy,360,2012-10-10 08:30:00
3:53 AM,68.0,64.9,90,30.09,9.0,North,3.5,-,N/A,,Clear,10,2012-10-10 08:53:00
4:53 AM,69.1,64.9,87,30.09,10.0,North,4.6,-,N/A,,Clear,10,2012-10-10 09:53:00
5:53 AM,69.1,64.9,87,30.11,10.0,NE,4.6,-,N/A,,Clear,40,2012-10-10 10:53:00
6:53 AM,66.9,64.0,90,30.12,5.0,NNE,3.5,-,N/A,,Clear,30,2012-10-10 11:53:00
7:53 AM,68.0,66.0,93,30.12,7.0,SE,3.5,-,N/A,,Clear,140,2012-10-10 12:53:00
8:53 AM,70.0,66.0,87,30.14,8.0,SE,3.5,-,N/A,,Clear,130,2012-10-10 13:53:00
9:53 AM,73.0,64.0,73,30.16,10.0,NE,3.5,-,N/A,,Clear,50,2012-10-10 14:53:00
10:53 AM,75.0,64.9,71,30.16,10.0,Calm,Calm,-,N/A,,Mostly Cloudy,0,2012-10-10 15:53:00
11:53 AM,75.0,66.9,76,30.16,10.0,NNW,4.6,-,N/A,,Clear,340,2012-10-10 16:53:00
12:53 PM,77.0,66.9,71,30.14,10.0,North,6.9,-,N/A,,Clear,350,2012-10-10 17:53:00
1:53 PM,78.1,66.0,66,30.10,10.0,NNW,5.8,-,N/A,,Clear,330,2012-10-10 18:53:00
2:53 PM,79.0,63.0,58,30.09,10.0,NW,4.6,-,N/A,,Clear,310,2012-10-10 19:53:00
3:53 PM,79.0,62.1,56,30.08,10.0,WNW,3.5,-,N/A,,Clear,290,2012-10-10 20:53:00
4:53 PM,79.0,64.0,60,30.07,10.0,Calm,Calm,-,N/A,,Clear,0,2012-10-10 21:53:00
5:53 PM,79.0,63.0,58,30.07,10.0,Calm,Calm,-,N/A,,Clear,0,2012-10-10 22:53:00
6:53 PM,77.0,66.0,69,30.10,10.0,Calm,Calm,-,N/A,,Clear,0,2012-10-10 23:53:00
7:53 PM,77.0,68.0,74,30.11,10.0,NE,3.5,-,N/A,,Clear,50,2012-10-11 00:53:00
8:53 PM,75.9,68.0,76,30.12,10.0,ENE,3.5,-,N/A,,Clear,70,2012-10-11 01:53:00
9:53 PM,75.0,66.9,76,30.14,10.0,East,5.8,-,N/A,,Clear,90,2012-10-11 02:53:00
10:53 PM,73.0,64.9,76,30.15,10.0,ESE,3.5,-,N/A,,Clear,110,2012-10-11 03:53:00
11:53 PM,72.0,64.0,76,30.14,10.0,ESE,5.8,-,N/A,,Clear,120,2012-10-11 04:53:00